createdAt,value
2018-08-20T05:46:33.397Z,19.50
2018-08-20T05:49:01.619Z,18.00
2018-08-20T05:51:29.777Z,18.00
2018-08-20T05:53:57.993Z,18.00
2018-08-20T05:56:26.567Z,18.10
2018-08-20T05:58:55.624Z,18.10
2018-08-20T06:01:23.837Z,18.20
2018-08-20T06:03:51.951Z,18.10
2018-08-20T06:06:20.933Z,18.10
2018-08-20T06:08:49.693Z,18.10
2018-08-20T06:11:17.801Z,18.10
2018-08-20T06:13:46.745Z,18.20
2018-08-20T06:16:14.889Z,18.20
2018-08-20T06:18:43.125Z,18.20
2018-08-20T06:21:11.461Z,18.30
2018-08-20T06:23:39.568Z,18.40
2018-08-20T06:26:07.721Z,18.50
2018-08-20T06:28:36.351Z,18.60
2018-08-20T06:31:04.425Z,18.60
2018-08-20T06:33:32.703Z,18.70
2018-08-20T06:36:00.913Z,18.90
2018-08-20T06:38:29.079Z,19.00
2018-08-20T06:40:57.448Z,19.00
2018-08-20T06:43:25.526Z,19.20
2018-08-20T06:45:53.906Z,19.40
2018-08-20T06:48:22.190Z,19.50
2018-08-20T06:50:50.353Z,19.60
2018-08-20T06:53:18.942Z,19.80
2018-08-20T06:55:47.413Z,19.90
2018-08-20T06:58:16.339Z,20.00
2018-08-20T07:00:45.933Z,20.10
2018-08-20T07:03:14.056Z,20.30
2018-08-20T07:12:39.668Z,20.60
2018-08-20T07:15:09.702Z,20.40
2018-08-20T07:17:37.982Z,20.10
2018-08-20T07:20:08.626Z,20.00
2018-08-20T07:22:37.093Z,19.80
2018-08-20T07:25:05.701Z,19.70
2018-08-20T07:27:34.365Z,19.70
2018-08-20T07:30:05.087Z,20.00
2018-08-20T07:32:34.931Z,20.30
2018-08-20T07:35:03.749Z,20.30
2018-08-20T07:37:31.833Z,20.20
2018-08-20T07:40:00.028Z,19.90
2018-08-20T07:42:28.808Z,19.70
2018-08-20T07:44:57.533Z,19.70
2018-08-20T07:47:25.729Z,19.60
2018-08-20T07:49:53.968Z,19.70
2018-08-20T07:52:22.143Z,19.80
2018-08-20T07:54:50.965Z,19.90
2018-08-20T07:57:20.325Z,20.00
2018-08-20T07:59:48.676Z,20.10
2018-08-20T08:02:17.195Z,20.30
2018-08-20T08:04:45.425Z,20.50
2018-08-20T08:07:13.535Z,20.30
2018-08-20T08:09:41.753Z,20.60
2018-08-20T08:12:10.636Z,21.20
2018-08-20T08:14:38.775Z,21.80
2018-08-20T08:17:06.986Z,22.30
2018-08-20T08:19:35.141Z,22.50
2018-08-20T08:22:03.325Z,22.30
2018-08-20T08:24:31.489Z,22.10
2018-08-20T08:26:59.756Z,21.80
2018-08-20T08:29:28.005Z,21.60
2018-08-20T08:31:56.941Z,21.80
2018-08-20T08:34:25.708Z,22.30
2018-08-20T08:36:53.786Z,23.50
2018-08-20T08:39:22.278Z,24.60
2018-08-20T08:41:51.115Z,25.30
2018-08-20T08:44:19.209Z,24.90
2018-08-20T08:46:47.689Z,24.80
2018-08-20T08:49:16.865Z,25.00
2018-08-20T08:51:45.189Z,24.40
2018-08-20T08:54:13.365Z,23.70
2018-08-20T08:56:42.777Z,23.00
2018-08-20T08:59:11.350Z,22.60
2018-08-20T09:01:40.177Z,22.20
2018-08-20T09:04:08.825Z,22.00
2018-08-20T09:06:37.177Z,21.70
2018-08-20T09:09:06.940Z,21.30
2018-08-20T09:11:35.109Z,21.20
2018-08-20T09:14:03.268Z,21.00
2018-08-20T09:16:31.501Z,20.70
2018-08-20T09:19:00.156Z,20.50
2018-08-20T09:21:28.853Z,20.30
2018-08-20T09:23:57.209Z,20.00
2018-08-20T09:26:26.501Z,19.90
2018-08-20T09:28:54.930Z,19.80
2018-08-20T09:31:23.378Z,19.90
2018-08-20T09:33:51.645Z,20.00
2018-08-20T09:36:20.237Z,20.20
2018-08-20T09:38:48.757Z,21.90
2018-08-20T09:41:16.977Z,23.70
2018-08-20T09:43:45.327Z,23.70
2018-08-20T09:46:13.437Z,23.50
2018-08-20T09:48:42.680Z,23.00
2018-08-20T09:51:10.862Z,22.60
2018-08-20T09:53:39.006Z,22.10
2018-08-20T09:56:08.538Z,21.40
2018-08-20T09:58:36.727Z,20.90
2018-08-20T10:01:04.933Z,20.50
2018-08-20T10:03:33.198Z,20.40
2018-08-20T10:06:01.938Z,20.50
2018-08-20T10:08:30.390Z,20.80
2018-08-20T10:10:58.457Z,21.20
2018-08-20T10:13:27.626Z,21.30
2018-08-20T10:15:55.693Z,21.40
2018-08-20T10:18:24.438Z,21.70
2018-08-20T10:20:52.466Z,22.60
2018-08-20T10:23:20.646Z,24.40
2018-08-20T10:25:48.854Z,26.20
2018-08-20T10:28:17.002Z,26.70
2018-08-20T10:30:46.365Z,27.60
2018-08-20T10:33:14.707Z,28.10
2018-08-20T10:35:42.982Z,26.90
2018-08-20T10:38:11.254Z,25.50
2018-08-20T10:40:39.317Z,24.90
2018-08-20T10:43:07.690Z,24.60
2018-08-20T10:45:41.400Z,24.60
2018-08-20T10:48:09.600Z,24.20
2018-08-20T10:50:38.620Z,23.20
2018-08-20T10:53:06.969Z,22.30
2018-08-20T10:55:35.108Z,21.70
2018-08-20T10:58:03.233Z,21.30
2018-08-20T11:00:32.059Z,21.20
2018-08-20T11:03:00.505Z,21.40
2018-08-20T11:05:28.657Z,21.60
2018-08-20T11:07:58.043Z,21.70
2018-08-20T11:10:30.897Z,21.40
2018-08-20T11:12:59.375Z,21.10
2018-08-20T11:15:28.206Z,20.80
2018-08-20T11:17:56.432Z,20.70
2018-08-20T11:20:25.064Z,20.80
2018-08-20T11:22:53.242Z,21.10
2018-08-20T11:25:21.398Z,21.40
2018-08-20T11:27:50.319Z,21.70
2018-08-20T11:30:18.762Z,22.00
2018-08-20T11:32:47.461Z,22.40
2018-08-20T11:35:16.161Z,22.60
2018-08-20T11:37:44.350Z,22.70
2018-08-20T11:40:12.590Z,23.20
2018-08-20T11:42:41.796Z,23.30
2018-08-20T11:45:12.211Z,23.30
2018-08-20T11:47:40.757Z,23.50
2018-08-20T11:50:10.243Z,23.70
2018-08-20T11:52:39.029Z,24.00
2018-08-20T11:55:07.990Z,24.00
2018-08-20T11:57:37.337Z,23.60
2018-08-20T12:00:07.905Z,23.20
2018-08-20T12:02:36.974Z,23.40
2018-08-20T12:05:06.334Z,23.50
2018-08-20T12:07:35.729Z,23.60
2018-08-20T12:10:04.761Z,23.50
2018-08-20T12:12:33.451Z,23.30
2018-08-20T12:15:02.693Z,23.10
2018-08-20T12:17:32.463Z,23.00
2018-08-20T12:20:01.353Z,23.00
2018-08-20T12:22:29.601Z,22.90
2018-08-20T12:24:58.253Z,22.80
2018-08-20T12:27:27.288Z,23.30
2018-08-20T12:29:55.429Z,23.90
2018-08-20T12:32:24.593Z,24.10
2018-08-20T12:34:53.398Z,23.90
2018-08-20T12:37:22.166Z,23.60
2018-08-20T12:39:50.540Z,23.50
2018-08-20T12:42:19.231Z,23.50
2018-08-20T12:44:47.397Z,23.60
2018-08-20T12:47:16.941Z,23.80
2018-08-20T12:49:45.721Z,24.00
2018-08-20T12:52:14.305Z,23.60
2018-08-20T12:54:42.674Z,23.40
2018-08-20T12:57:11.585Z,23.60
2018-08-20T12:59:40.213Z,23.70
2018-08-20T13:02:08.486Z,23.80
2018-08-20T13:04:37.278Z,24.00
2018-08-20T13:07:06.382Z,24.00
2018-08-20T13:09:34.930Z,24.00
2018-08-20T13:12:03.353Z,24.20
2018-08-20T13:14:32.054Z,24.80
2018-08-20T13:17:01.270Z,25.00
2018-08-20T13:19:34.945Z,25.30
2018-08-20T13:22:04.237Z,25.60
2018-08-20T13:24:32.957Z,24.90
2018-08-20T13:27:01.785Z,24.50
2018-08-20T13:29:30.423Z,24.20
2018-08-20T13:31:59.890Z,24.10
2018-08-20T13:34:30.988Z,24.00
2018-08-20T13:36:59.958Z,24.20
2018-08-20T13:39:28.358Z,24.10
2018-08-20T13:41:57.338Z,24.10
2018-08-20T13:44:25.930Z,24.00
2018-08-20T13:46:54.633Z,23.90
2018-08-20T13:49:23.301Z,23.80
2018-08-20T13:51:53.289Z,23.50
2018-08-20T13:54:21.806Z,23.20
2018-08-20T13:56:50.925Z,22.90
2018-08-20T13:59:19.281Z,22.70
2018-08-20T14:01:47.638Z,23.00
2018-08-20T14:04:15.705Z,23.20
2018-08-20T14:06:44.265Z,23.50
2018-08-20T14:09:13.077Z,23.60
2018-08-20T14:11:42.245Z,23.80
2018-08-20T14:14:10.438Z,23.80
2018-08-20T14:16:38.745Z,24.20
2018-08-20T14:19:07.098Z,24.30
2018-08-20T14:21:36.246Z,24.30
2018-08-20T14:24:04.370Z,24.20
2018-08-20T14:26:32.641Z,24.10
2018-08-20T14:29:01.821Z,23.70
2018-08-20T14:31:30.039Z,23.70
2018-08-20T14:33:59.046Z,23.90
2018-08-20T14:36:27.892Z,23.80
2018-08-20T14:38:56.145Z,23.50
2018-08-20T14:41:24.294Z,23.30
2018-08-20T14:43:55.097Z,23.30
2018-08-20T14:46:24.929Z,23.30
2018-08-20T14:48:55.019Z,23.60
2018-08-20T14:51:23.597Z,24.00
2018-08-20T14:53:52.233Z,23.90
2018-08-20T14:56:21.052Z,23.70
2018-08-20T14:58:50.457Z,23.30
2018-08-20T15:01:18.589Z,23.10
2018-08-20T15:03:48.260Z,23.10
2018-08-20T15:06:17.686Z,23.00
2018-08-20T15:08:46.994Z,23.00
2018-08-20T15:11:16.801Z,23.00
2018-08-20T15:13:45.524Z,22.90
2018-08-20T15:16:14.065Z,22.60
2018-08-20T15:18:43.085Z,22.50
2018-08-20T15:21:11.799Z,22.60
2018-08-20T15:23:39.866Z,22.60
2018-08-20T15:26:08.969Z,22.70
2018-08-20T15:28:37.929Z,22.70
2018-08-20T15:31:06.929Z,22.70
2018-08-20T15:33:36.042Z,22.70
2018-08-20T15:36:04.902Z,22.70
2018-08-20T15:38:33.662Z,22.40
2018-08-20T15:41:02.213Z,22.20
2018-08-20T15:43:30.985Z,22.20
2018-08-20T15:45:59.465Z,22.10
2018-08-20T15:48:28.953Z,22.00
2018-08-20T15:50:58.101Z,21.90
2018-08-20T15:53:26.199Z,21.90
2018-08-20T15:55:58.157Z,21.90
2018-08-20T15:58:26.268Z,21.80
2018-08-20T16:00:55.269Z,21.90
2018-08-20T16:03:24.046Z,22.00
2018-08-20T16:05:54.078Z,22.00
2018-08-20T16:08:22.220Z,22.00
2018-08-20T16:10:51.906Z,21.90
2018-08-20T16:13:20.157Z,21.80
2018-08-20T16:15:48.233Z,21.70
2018-08-20T16:18:18.041Z,21.70
2018-08-20T16:20:46.885Z,21.70
2018-08-20T16:23:16.090Z,21.50
2018-08-20T16:25:45.141Z,21.30
2018-08-20T16:28:14.102Z,21.30
2018-08-20T16:30:43.581Z,21.20
2018-08-20T16:33:12.121Z,21.00
2018-08-20T16:35:40.894Z,21.00
2018-08-20T16:38:09.005Z,20.90
2018-08-20T16:40:37.213Z,20.80
2018-08-20T16:43:06.749Z,20.80
2018-08-20T16:45:34.862Z,20.90
2018-08-20T16:48:02.929Z,20.80
2018-08-20T16:50:31.157Z,20.60
2018-08-20T16:52:59.337Z,20.50
2018-08-20T16:55:27.457Z,20.40
2018-08-20T16:57:55.549Z,20.30
2018-08-20T17:00:24.697Z,20.30
2018-08-20T17:02:53.257Z,20.20
2018-08-20T17:05:21.440Z,20.20
2018-08-20T17:07:50.493Z,20.10
2018-08-20T17:10:20.034Z,20.00
2018-08-20T17:12:48.798Z,20.00
2018-08-20T17:15:19.973Z,19.90
2018-08-20T17:17:49.001Z,19.90
2018-08-20T17:20:17.837Z,20.00
2018-08-20T17:22:46.057Z,19.90
2018-08-20T17:25:14.810Z,20.00
2018-08-20T17:27:44.777Z,20.00
2018-08-20T17:30:13.704Z,20.00
2018-08-20T17:32:42.103Z,19.90
2018-08-20T17:35:10.917Z,19.90
2018-08-20T17:37:38.993Z,19.90
2018-08-20T17:40:10.630Z,19.90
2018-08-20T17:42:39.796Z,19.80
2018-08-20T17:45:09.117Z,19.70
2018-08-20T17:47:40.093Z,19.60
2018-08-20T17:50:24.600Z,19.50
2018-08-20T17:52:53.009Z,19.40
2018-08-20T17:55:22.571Z,19.30
2018-08-20T17:57:50.797Z,19.20
2018-08-20T18:00:25.795Z,19.20
2018-08-20T18:02:54.913Z,19.10
2018-08-20T18:05:26.761Z,19.10
2018-08-20T18:07:54.973Z,19.00
2018-08-20T18:10:24.461Z,18.80
2018-08-20T18:12:52.609Z,18.70
2018-08-20T18:15:21.725Z,18.70
2018-08-20T18:17:50.622Z,18.70
2018-08-20T18:20:19.327Z,18.70
2018-08-20T18:22:48.480Z,18.60
2018-08-20T18:25:17.814Z,18.60
2018-08-20T18:27:46.550Z,18.60
2018-08-20T18:30:16.565Z,18.50
2018-08-20T18:32:45.106Z,18.50
2018-08-20T18:35:22.481Z,18.40
2018-08-20T18:37:51.947Z,18.30
2018-08-20T18:40:21.849Z,18.30
2018-08-20T18:42:50.278Z,18.30
2018-08-20T18:45:18.449Z,18.20
2018-08-20T18:47:48.006Z,18.00
2018-08-20T18:50:17.893Z,18.00
2018-08-20T18:52:46.877Z,18.00
2018-08-20T18:55:15.246Z,18.00
2018-08-20T19:04:50.645Z,17.80
2018-08-20T19:07:19.213Z,17.70
2018-08-20T19:09:49.281Z,17.70
2018-08-20T19:12:17.758Z,17.60
2018-08-20T19:14:46.609Z,17.50
2018-08-20T19:17:21.292Z,17.50
2018-08-20T19:19:50.265Z,17.50
2018-08-20T19:22:23.881Z,17.40
2018-08-20T19:24:53.153Z,17.40
2018-08-20T19:27:21.752Z,17.30
2018-08-20T19:29:49.837Z,17.30
2018-08-20T19:32:18.802Z,17.20
2018-08-20T19:34:48.761Z,17.10
2018-08-20T19:37:18.677Z,17.10
2018-08-20T19:39:47.473Z,17.00
2018-08-20T19:42:21.552Z,16.90
2018-08-20T19:44:50.526Z,16.80
2018-08-20T19:47:19.430Z,16.80
2018-08-20T19:49:47.780Z,16.80
2018-08-20T19:52:16.639Z,16.80
2018-08-20T19:54:47.732Z,16.80
2018-08-20T19:57:16.510Z,16.70
2018-08-20T19:59:46.415Z,16.50
2018-08-20T20:02:14.517Z,16.50
2018-08-20T20:04:43.372Z,16.30
2018-08-20T20:07:12.245Z,16.20
2018-08-20T20:09:40.881Z,16.10
2018-08-20T20:12:09.129Z,16.00
2018-08-20T20:14:44.047Z,15.90
2018-08-20T20:17:13.009Z,15.80
2018-08-20T20:19:41.665Z,15.80
2018-08-20T20:22:13.721Z,15.60
2018-08-20T20:24:42.517Z,15.50
2018-08-20T20:27:12.241Z,15.40
2018-08-20T20:29:41.707Z,15.40
2018-08-20T20:32:10.561Z,15.30
2018-08-20T20:34:39.521Z,15.20
2018-08-20T20:37:08.509Z,15.10
2018-08-20T20:39:39.877Z,15.00
2018-08-20T20:42:08.442Z,14.90
2018-08-20T20:44:37.391Z,15.00
2018-08-20T20:47:05.691Z,15.00
2018-08-20T20:49:34.477Z,15.00
2018-08-20T20:52:03.517Z,15.10
2018-08-20T20:54:31.636Z,15.10
2018-08-20T20:57:00.289Z,15.10
2018-08-20T20:59:29.257Z,15.10
2018-08-20T21:01:58.137Z,15.10
2018-08-20T21:04:26.389Z,15.20
2018-08-20T21:06:55.082Z,15.10
2018-08-20T21:09:24.070Z,15.10
2018-08-20T21:11:53.075Z,15.00
2018-08-20T21:14:21.637Z,14.90
2018-08-20T21:16:50.122Z,14.90
2018-08-20T21:19:20.385Z,14.90
2018-08-20T21:21:49.025Z,14.90
2018-08-20T21:24:17.589Z,14.80
2018-08-20T21:26:45.646Z,14.80
2018-08-20T21:29:15.013Z,14.70
2018-08-20T21:31:50.350Z,14.70
2018-08-20T21:34:20.997Z,14.70
2018-08-20T21:36:50.263Z,14.50
2018-08-20T21:39:18.953Z,14.50
2018-08-20T21:41:47.610Z,14.40
2018-08-20T21:44:17.304Z,14.40
2018-08-20T21:46:45.437Z,14.30
2018-08-20T21:49:14.281Z,14.20
2018-08-20T21:51:49.153Z,14.20
2018-08-20T21:54:24.325Z,14.10
2018-08-20T21:56:53.552Z,14.10
2018-08-20T21:59:22.219Z,14.00
2018-08-20T22:01:51.529Z,14.00
2018-08-20T22:04:21.500Z,13.90
2018-08-20T22:06:51.156Z,13.90
2018-08-20T22:09:20.392Z,13.90
2018-08-20T22:11:49.173Z,13.90
2018-08-20T22:14:17.473Z,13.90
2018-08-20T22:16:46.391Z,13.90
2018-08-20T22:19:15.573Z,13.80
2018-08-20T22:21:45.124Z,13.70
2018-08-20T22:24:13.305Z,13.60
2018-08-20T22:26:47.898Z,13.60
2018-08-20T22:29:17.417Z,13.60
2018-08-20T22:31:52.239Z,13.60
2018-08-20T22:34:21.772Z,13.60
2018-08-20T22:36:55.181Z,13.70
2018-08-20T22:39:23.503Z,13.60
2018-08-20T22:41:52.337Z,13.60
2018-08-20T22:44:21.155Z,13.50
2018-08-20T22:46:51.557Z,13.30
2018-08-20T22:49:20.268Z,13.30
2018-08-20T22:51:48.970Z,13.20
2018-08-20T22:54:17.450Z,13.20
2018-08-20T22:56:46.141Z,13.20
2018-08-20T22:59:14.214Z,13.10
2018-08-20T23:01:43.473Z,13.10
2018-08-20T23:04:12.428Z,13.00
2018-08-20T23:06:42.398Z,13.00
2018-08-20T23:09:26.303Z,13.00
2018-08-20T23:11:56.377Z,13.00
2018-08-20T23:14:25.996Z,13.00
2018-08-20T23:16:54.705Z,12.90
2018-08-20T23:19:22.877Z,12.90
2018-08-20T23:21:53.841Z,12.90
2018-08-20T23:24:22.888Z,13.00
2018-08-20T23:26:52.031Z,13.00
2018-08-20T23:29:21.219Z,13.10
2018-08-20T23:31:49.345Z,13.00
2018-08-20T23:34:18.150Z,13.00
2018-08-20T23:36:46.830Z,13.00
2018-08-20T23:39:16.181Z,12.90
2018-08-20T23:41:45.816Z,12.90
2018-08-20T23:44:16.871Z,12.80
2018-08-20T23:46:47.122Z,12.80
2018-08-20T23:49:15.309Z,12.70
2018-08-20T23:51:44.011Z,12.60
2018-08-20T23:54:13.049Z,12.50
2018-08-20T23:56:41.785Z,12.50
2018-08-20T23:59:11.360Z,12.40
